sensor_id;sensor_type;location;lat;lon;timestamp;P1;durP1;ratioP1;P2;durP2;ratioP2
73632;SDS011;61927;50.080;14.418;2023-03-08T00:00:02;10.32;;;4.97;;
73632;SDS011;61927;50.080;14.418;2023-03-08T00:02:50;10.52;;;4.80;;
73632;SDS011;61927;50.080;14.418;2023-03-08T00:05:18;7.90;;;4.45;;
73632;SDS011;61927;50.080;14.418;2023-03-08T00:07:44;13.02;;;5.68;;
73632;SDS011;61927;50.080;14.418;2023-03-08T00:10:09;5.65;;;4.38;;
73632;SDS011;61927;50.080;14.418;2023-03-08T00:12:35;5.00;;;4.22;;
73632;SDS011;61927;50.080;14.418;2023-03-08T00:15:01;6.88;;;4.63;;
73632;SDS011;61927;50.080;14.418;2023-03-08T00:17:27;8.40;;;4.88;;
73632;SDS011;61927;50.080;14.418;2023-03-08T00:19:52;7.00;;;4.65;;
73632;SDS011;61927;50.080;14.418;2023-03-08T00:22:18;6.65;;;4.88;;
73632;SDS011;61927;50.080;14.418;2023-03-08T00:24:44;8.00;;;5.50;;
73632;SDS011;61927;50.080;14.418;2023-03-08T00:27:09;9.32;;;4.68;;
73632;SDS011;61927;50.080;14.418;2023-03-08T00:29:35;9.20;;;5.15;;
73632;SDS011;61927;50.080;14.418;2023-03-08T00:32:01;8.55;;;5.05;;
73632;SDS011;61927;50.080;14.418;2023-03-08T00:34:26;5.43;;;4.60;;
73632;SDS011;61927;50.080;14.418;2023-03-08T00:36:52;7.35;;;4.72;;
73632;SDS011;61927;50.080;14.418;2023-03-08T00:39:18;8.82;;;4.97;;
73632;SDS011;61927;50.080;14.418;2023-03-08T00:41:43;6.32;;;4.70;;
73632;SDS011;61927;50.080;14.418;2023-03-08T00:44:09;7.03;;;4.70;;
73632;SDS011;61927;50.080;14.418;2023-03-08T00:46:34;6.25;;;5.03;;
73632;SDS011;61927;50.080;14.418;2023-03-08T00:49:00;7.53;;;5.07;;
73632;SDS011;61927;50.080;14.418;2023-03-08T00:51:26;7.57;;;5.47;;
73632;SDS011;61927;50.080;14.418;2023-03-08T00:53:51;6.18;;;4.95;;
73632;SDS011;61927;50.080;14.418;2023-03-08T00:56:18;7.50;;;4.72;;
73632;SDS011;61927;50.080;14.418;2023-03-08T00:58:43;9.15;;;5.20;;
73632;SDS011;61927;50.080;14.418;2023-03-08T01:01:11;7.47;;;5.18;;
73632;SDS011;61927;50.080;14.418;2023-03-08T01:03:39;11.85;;;5.18;;
73632;SDS011;61927;50.080;14.418;2023-03-08T01:06:09;6.47;;;4.80;;
73632;SDS011;61927;50.080;14.418;2023-03-08T01:08:36;8.38;;;4.90;;
73632;SDS011;61927;50.080;14.418;2023-03-08T01:11:04;9.25;;;4.72;;
73632;SDS011;61927;50.080;14.418;2023-03-08T01:13:31;5.78;;;4.88;;
73632;SDS011;61927;50.080;14.418;2023-03-08T01:15:59;7.30;;;5.10;;
73632;SDS011;61927;50.080;14.418;2023-03-08T01:18:26;11.32;;;5.22;;
73632;SDS011;61927;50.080;14.418;2023-03-08T01:20:59;7.40;;;5.43;;
73632;SDS011;61927;50.080;14.418;2023-03-08T01:23:27;11.45;;;4.95;;
73632;SDS011;61927;50.080;14.418;2023-03-08T01:26:04;8.80;;;5.68;;
73632;SDS011;61927;50.080;14.418;2023-03-08T01:28:31;8.57;;;5.72;;
73632;SDS011;61927;50.080;14.418;2023-03-08T01:31:11;7.50;;;5.47;;
73632;SDS011;61927;50.080;14.418;2023-03-08T01:33:38;11.98;;;5.88;;
73632;SDS011;61927;50.080;14.418;2023-03-08T01:36:05;9.38;;;5.45;;
73632;SDS011;61927;50.080;14.418;2023-03-08T01:38:32;7.32;;;5.57;;
73632;SDS011;61927;50.080;14.418;2023-03-08T01:40:58;7.50;;;5.90;;
73632;SDS011;61927;50.080;14.418;2023-03-08T01:43:30;7.90;;;5.35;;
73632;SDS011;61927;50.080;14.418;2023-03-08T01:46:10;9.48;;;5.18;;
73632;SDS011;61927;50.080;14.418;2023-03-08T01:48:46;12.45;;;5.90;;
73632;SDS011;61927;50.080;14.418;2023-03-08T01:51:19;7.20;;;5.13;;
73632;SDS011;61927;50.080;14.418;2023-03-08T01:53:50;7.50;;;6.15;;
73632;SDS011;61927;50.080;14.418;2023-03-08T01:56:17;8.80;;;5.88;;
73632;SDS011;61927;50.080;14.418;2023-03-08T01:58:44;7.18;;;5.07;;
73632;SDS011;61927;50.080;14.418;2023-03-08T02:01:14;6.40;;;5.05;;
73632;SDS011;61927;50.080;14.418;2023-03-08T02:03:39;7.28;;;5.28;;
73632;SDS011;61927;50.080;14.418;2023-03-08T02:06:05;7.07;;;5.53;;
73632;SDS011;61927;50.080;14.418;2023-03-08T02:08:32;7.85;;;6.05;;
73632;SDS011;61927;50.080;14.418;2023-03-08T02:10:58;9.98;;;5.47;;
73632;SDS011;61927;50.080;14.418;2023-03-08T02:13:25;7.95;;;5.10;;
73632;SDS011;61927;50.080;14.418;2023-03-08T02:15:51;9.15;;;5.70;;
73632;SDS011;61927;50.080;14.418;2023-03-08T02:18:20;7.13;;;5.65;;
73632;SDS011;61927;50.080;14.418;2023-03-08T02:20:46;7.32;;;5.47;;
73632;SDS011;61927;50.080;14.418;2023-03-08T02:25:38;12.15;;;5.65;;
73632;SDS011;61927;50.080;14.418;2023-03-08T02:28:04;9.10;;;6.00;;
73632;SDS011;61927;50.080;14.418;2023-03-08T02:30:35;10.32;;;5.40;;
73632;SDS011;61927;50.080;14.418;2023-03-08T02:33:02;9.55;;;5.63;;
73632;SDS011;61927;50.080;14.418;2023-03-08T02:35:28;6.65;;;5.40;;
73632;SDS011;61927;50.080;14.418;2023-03-08T02:37:54;7.03;;;4.97;;
73632;SDS011;61927;50.080;14.418;2023-03-08T02:40:20;9.57;;;5.88;;
73632;SDS011;61927;50.080;14.418;2023-03-08T02:42:46;8.40;;;5.93;;
73632;SDS011;61927;50.080;14.418;2023-03-08T02:45:12;8.13;;;5.78;;
73632;SDS011;61927;50.080;14.418;2023-03-08T02:47:37;6.70;;;5.05;;
73632;SDS011;61927;50.080;14.418;2023-03-08T02:50:04;9.68;;;5.45;;
73632;SDS011;61927;50.080;14.418;2023-03-08T02:52:30;6.63;;;5.20;;
73632;SDS011;61927;50.080;14.418;2023-03-08T02:54:56;12.25;;;5.32;;
73632;SDS011;61927;50.080;14.418;2023-03-08T02:57:21;5.43;;;4.80;;
73632;SDS011;61927;50.080;14.418;2023-03-08T02:59:47;8.93;;;5.57;;
73632;SDS011;61927;50.080;14.418;2023-03-08T03:02:12;6.97;;;5.35;;
73632;SDS011;61927;50.080;14.418;2023-03-08T03:04:38;7.28;;;4.88;;
73632;SDS011;61927;50.080;14.418;2023-03-08T03:07:04;6.55;;;4.88;;
73632;SDS011;61927;50.080;14.418;2023-03-08T03:09:29;9.02;;;5.20;;
73632;SDS011;61927;50.080;14.418;2023-03-08T03:11:55;8.77;;;5.55;;
73632;SDS011;61927;50.080;14.418;2023-03-08T03:14:21;17.15;;;5.13;;
73632;SDS011;61927;50.080;14.418;2023-03-08T03:16:46;7.68;;;4.90;;
73632;SDS011;61927;50.080;14.418;2023-03-08T03:19:12;7.53;;;5.78;;
73632;SDS011;61927;50.080;14.418;2023-03-08T03:21:38;7.97;;;5.97;;
73632;SDS011;61927;50.080;14.418;2023-03-08T03:24:04;7.00;;;5.70;;
73632;SDS011;61927;50.080;14.418;2023-03-08T03:26:30;10.25;;;5.78;;
73632;SDS011;61927;50.080;14.418;2023-03-08T03:28:56;9.07;;;5.30;;
73632;SDS011;61927;50.080;14.418;2023-03-08T03:31:23;7.97;;;5.15;;
73632;SDS011;61927;50.080;14.418;2023-03-08T03:33:50;5.95;;;4.88;;
73632;SDS011;61927;50.080;14.418;2023-03-08T03:36:17;6.68;;;3.90;;
73632;SDS011;61927;50.080;14.418;2023-03-08T03:38:44;3.90;;;3.50;;
73632;SDS011;61927;50.080;14.418;2023-03-08T03:41:12;5.30;;;3.95;;
73632;SDS011;61927;50.080;14.418;2023-03-08T03:43:42;4.47;;;4.07;;
73632;SDS011;61927;50.080;14.418;2023-03-08T03:46:09;6.63;;;4.70;;
73632;SDS011;61927;50.080;14.418;2023-03-08T03:48:37;8.35;;;4.55;;
73632;SDS011;61927;50.080;14.418;2023-03-08T03:51:04;13.70;;;4.57;;
73632;SDS011;61927;50.080;14.418;2023-03-08T03:53:32;7.10;;;5.03;;
73632;SDS011;61927;50.080;14.418;2023-03-08T03:56:05;8.23;;;4.95;;
73632;SDS011;61927;50.080;14.418;2023-03-08T03:58:42;5.40;;;4.43;;
73632;SDS011;61927;50.080;14.418;2023-03-08T04:01:09;17.45;;;4.20;;
73632;SDS011;61927;50.080;14.418;2023-03-08T04:03:38;4.00;;;3.65;;
73632;SDS011;61927;50.080;14.418;2023-03-08T04:06:05;7.15;;;3.53;;
73632;SDS011;61927;50.080;14.418;2023-03-08T04:08:36;6.63;;;3.67;;
73632;SDS011;61927;50.080;14.418;2023-03-08T04:11:09;3.28;;;2.90;;
73632;SDS011;61927;50.080;14.418;2023-03-08T04:13:37;7.68;;;2.60;;
73632;SDS011;61927;50.080;14.418;2023-03-08T04:18:56;2.70;;;2.50;;
73632;SDS011;61927;50.080;14.418;2023-03-08T04:21:23;2.65;;;2.20;;
73632;SDS011;61927;50.080;14.418;2023-03-08T04:23:49;3.60;;;2.25;;
73632;SDS011;61927;50.080;14.418;2023-03-08T04:26:15;1.80;;;1.67;;
73632;SDS011;61927;50.080;14.418;2023-03-08T04:28:41;2.55;;;2.33;;
73632;SDS011;61927;50.080;14.418;2023-03-08T04:31:11;1.98;;;1.88;;
73632;SDS011;61927;50.080;14.418;2023-03-08T04:33:36;1.77;;;1.67;;
73632;SDS011;61927;50.080;14.418;2023-03-08T04:36:02;2.50;;;1.80;;
73632;SDS011;61927;50.080;14.418;2023-03-08T04:38:28;2.15;;;2.05;;
73632;SDS011;61927;50.080;14.418;2023-03-08T04:40:53;2.15;;;1.75;;
73632;SDS011;61927;50.080;14.418;2023-03-08T04:43:38;1.30;;;1.30;;
73632;SDS011;61927;50.080;14.418;2023-03-08T04:46:05;1.67;;;1.58;;
73632;SDS011;61927;50.080;14.418;2023-03-08T04:48:32;1.65;;;1.55;;
73632;SDS011;61927;50.080;14.418;2023-03-08T04:50:58;2.05;;;1.90;;
73632;SDS011;61927;50.080;14.418;2023-03-08T04:53:26;1.75;;;1.65;;
73632;SDS011;61927;50.080;14.418;2023-03-08T04:55:52;1.67;;;1.58;;
73632;SDS011;61927;50.080;14.418;2023-03-08T04:58:18;1.77;;;1.35;;
73632;SDS011;61927;50.080;14.418;2023-03-08T05:00:44;1.30;;;1.30;;
73632;SDS011;61927;50.080;14.418;2023-03-08T05:03:10;1.85;;;1.48;;
73632;SDS011;61927;50.080;14.418;2023-03-08T05:05:37;2.13;;;1.60;;
73632;SDS011;61927;50.080;14.418;2023-03-08T05:08:09;1.85;;;1.20;;
73632;SDS011;61927;50.080;14.418;2023-03-08T05:10:35;4.20;;;1.40;;
73632;SDS011;61927;50.080;14.418;2023-03-08T05:13:00;1.30;;;1.30;;
73632;SDS011;61927;50.080;14.418;2023-03-08T05:15:26;1.50;;;1.40;;
73632;SDS011;61927;50.080;14.418;2023-03-08T05:17:51;1.95;;;1.50;;
73632;SDS011;61927;50.080;14.418;2023-03-08T05:20:17;1.50;;;1.40;;
73632;SDS011;61927;50.080;14.418;2023-03-08T05:22:43;4.30;;;1.38;;
73632;SDS011;61927;50.080;14.418;2023-03-08T05:25:08;1.17;;;1.17;;
73632;SDS011;61927;50.080;14.418;2023-03-08T05:27:37;2.47;;;1.33;;
73632;SDS011;61927;50.080;14.418;2023-03-08T05:30:03;1.20;;;1.20;;
73632;SDS011;61927;50.080;14.418;2023-03-08T05:32:29;1.05;;;1.05;;
73632;SDS011;61927;50.080;14.418;2023-03-08T05:34:54;1.17;;;1.17;;
73632;SDS011;61927;50.080;14.418;2023-03-08T05:37:20;1.73;;;1.15;;
73632;SDS011;61927;50.080;14.418;2023-03-08T05:39:49;1.35;;;1.25;;
73632;SDS011;61927;50.080;14.418;2023-03-08T05:42:16;1.20;;;1.10;;
73632;SDS011;61927;50.080;14.418;2023-03-08T05:44:42;5.93;;;1.33;;
73632;SDS011;61927;50.080;14.418;2023-03-08T05:47:07;1.05;;;1.05;;
73632;SDS011;61927;50.080;14.418;2023-03-08T05:49:33;4.38;;;1.50;;
73632;SDS011;61927;50.080;14.418;2023-03-08T05:51:59;3.97;;;1.27;;
73632;SDS011;61927;50.080;14.418;2023-03-08T05:54:24;6.88;;;2.25;;
73632;SDS011;61927;50.080;14.418;2023-03-08T05:56:50;5.68;;;1.98;;
73632;SDS011;61927;50.080;14.418;2023-03-08T05:59:15;3.50;;;1.70;;
73632;SDS011;61927;50.080;14.418;2023-03-08T06:01:41;4.40;;;1.42;;
73632;SDS011;61927;50.080;14.418;2023-03-08T06:04:06;2.67;;;1.60;;
73632;SDS011;61927;50.080;14.418;2023-03-08T06:06:32;3.92;;;2.40;;
73632;SDS011;61927;50.080;14.418;2023-03-08T06:08:57;2.38;;;1.80;;
73632;SDS011;61927;50.080;14.418;2023-03-08T06:11:23;1.70;;;1.60;;
73632;SDS011;61927;50.080;14.418;2023-03-08T06:13:49;7.75;;;1.70;;
73632;SDS011;61927;50.080;14.418;2023-03-08T06:16:15;1.55;;;1.55;;
73632;SDS011;61927;50.080;14.418;2023-03-08T06:18:41;3.50;;;2.00;;
73632;SDS011;61927;50.080;14.418;2023-03-08T06:21:09;6.32;;;1.52;;
73632;SDS011;61927;50.080;14.418;2023-03-08T06:23:37;1.70;;;1.50;;
73632;SDS011;61927;50.080;14.418;2023-03-08T06:26:03;6.75;;;2.22;;
73632;SDS011;61927;50.080;14.418;2023-03-08T06:28:30;5.60;;;2.10;;
73632;SDS011;61927;50.080;14.418;2023-03-08T06:30:56;12.27;;;2.75;;
73632;SDS011;61927;50.080;14.418;2023-03-08T06:33:23;9.15;;;3.10;;
73632;SDS011;61927;50.080;14.418;2023-03-08T06:35:58;10.70;;;2.60;;
73632;SDS011;61927;50.080;14.418;2023-03-08T06:38:23;7.00;;;2.83;;
73632;SDS011;61927;50.080;14.418;2023-03-08T06:40:50;4.00;;;1.80;;
73632;SDS011;61927;50.080;14.418;2023-03-08T06:43:16;6.53;;;2.72;;
73632;SDS011;61927;50.080;14.418;2023-03-08T06:45:41;4.35;;;2.65;;
73632;SDS011;61927;50.080;14.418;2023-03-08T06:48:07;3.20;;;2.20;;
73632;SDS011;61927;50.080;14.418;2023-03-08T06:50:33;3.45;;;2.28;;
73632;SDS011;61927;50.080;14.418;2023-03-08T06:52:58;6.68;;;2.53;;
73632;SDS011;61927;50.080;14.418;2023-03-08T06:55:24;9.07;;;2.58;;
73632;SDS011;61927;50.080;14.418;2023-03-08T06:57:50;10.23;;;2.80;;
73632;SDS011;61927;50.080;14.418;2023-03-08T07:00:17;5.68;;;3.33;;
73632;SDS011;61927;50.080;14.418;2023-03-08T07:02:43;6.88;;;3.40;;
73632;SDS011;61927;50.080;14.418;2023-03-08T07:05:09;6.82;;;4.85;;
73632;SDS011;61927;50.080;14.418;2023-03-08T07:07:34;10.18;;;4.85;;
73632;SDS011;61927;50.080;14.418;2023-03-08T07:10:02;14.15;;;7.03;;
73632;SDS011;61927;50.080;14.418;2023-03-08T07:12:28;7.05;;;4.72;;
73632;SDS011;61927;50.080;14.418;2023-03-08T07:14:56;16.25;;;5.53;;
73632;SDS011;61927;50.080;14.418;2023-03-08T07:17:23;11.45;;;5.75;;
73632;SDS011;61927;50.080;14.418;2023-03-08T07:19:49;5.80;;;4.60;;
73632;SDS011;61927;50.080;14.418;2023-03-08T07:22:14;17.27;;;4.97;;
73632;SDS011;61927;50.080;14.418;2023-03-08T07:24:40;8.25;;;4.65;;
73632;SDS011;61927;50.080;14.418;2023-03-08T07:27:06;8.60;;;5.30;;
73632;SDS011;61927;50.080;14.418;2023-03-08T07:29:32;6.35;;;4.78;;
73632;SDS011;61927;50.080;14.418;2023-03-08T07:32:05;9.95;;;5.55;;
73632;SDS011;61927;50.080;14.418;2023-03-08T07:34:31;7.93;;;5.70;;
73632;SDS011;61927;50.080;14.418;2023-03-08T07:36:56;9.73;;;5.32;;
73632;SDS011;61927;50.080;14.418;2023-03-08T07:39:23;6.03;;;4.78;;
73632;SDS011;61927;50.080;14.418;2023-03-08T07:41:49;9.63;;;5.20;;
73632;SDS011;61927;50.080;14.418;2023-03-08T07:44:15;10.68;;;4.85;;
73632;SDS011;61927;50.080;14.418;2023-03-08T07:46:40;12.05;;;5.55;;
73632;SDS011;61927;50.080;14.418;2023-03-08T07:49:06;7.75;;;5.07;;
73632;SDS011;61927;50.080;14.418;2023-03-08T07:51:35;9.70;;;5.00;;
73632;SDS011;61927;50.080;14.418;2023-03-08T07:54:01;9.48;;;5.07;;
73632;SDS011;61927;50.080;14.418;2023-03-08T07:56:27;9.68;;;5.60;;
73632;SDS011;61927;50.080;14.418;2023-03-08T07:58:57;8.15;;;5.25;;
73632;SDS011;61927;50.080;14.418;2023-03-08T08:01:22;9.98;;;5.70;;
73632;SDS011;61927;50.080;14.418;2023-03-08T08:03:49;9.82;;;5.40;;
73632;SDS011;61927;50.080;14.418;2023-03-08T08:06:15;11.50;;;4.90;;
73632;SDS011;61927;50.080;14.418;2023-03-08T08:08:40;13.20;;;5.32;;
73632;SDS011;61927;50.080;14.418;2023-03-08T08:11:12;6.63;;;4.72;;
73632;SDS011;61927;50.080;14.418;2023-03-08T08:13:40;12.13;;;5.38;;
73632;SDS011;61927;50.080;14.418;2023-03-08T08:16:08;8.50;;;5.10;;
73632;SDS011;61927;50.080;14.418;2023-03-08T08:18:34;7.90;;;5.28;;
73632;SDS011;61927;50.080;14.418;2023-03-08T08:21:01;11.02;;;5.60;;
73632;SDS011;61927;50.080;14.418;2023-03-08T08:23:28;8.55;;;5.63;;
73632;SDS011;61927;50.080;14.418;2023-03-08T08:25:54;9.57;;;5.50;;
73632;SDS011;61927;50.080;14.418;2023-03-08T08:28:20;12.60;;;5.88;;
73632;SDS011;61927;50.080;14.418;2023-03-08T08:30:59;11.40;;;5.03;;
73632;SDS011;61927;50.080;14.418;2023-03-08T08:33:28;7.75;;;5.43;;
73632;SDS011;61927;50.080;14.418;2023-03-08T08:35:54;7.05;;;5.05;;
73632;SDS011;61927;50.080;14.418;2023-03-08T08:38:21;10.45;;;5.55;;
73632;SDS011;61927;50.080;14.418;2023-03-08T08:40:47;12.60;;;5.85;;
73632;SDS011;61927;50.080;14.418;2023-03-08T08:43:13;6.47;;;5.00;;
73632;SDS011;61927;50.080;14.418;2023-03-08T08:45:43;5.90;;;4.72;;
73632;SDS011;61927;50.080;14.418;2023-03-08T08:48:13;10.15;;;5.00;;
73632;SDS011;61927;50.080;14.418;2023-03-08T08:50:39;10.70;;;5.40;;
73632;SDS011;61927;50.080;14.418;2023-03-08T08:53:06;13.45;;;6.00;;
73632;SDS011;61927;50.080;14.418;2023-03-08T08:55:33;7.85;;;5.43;;
73632;SDS011;61927;50.080;14.418;2023-03-08T08:57:59;9.38;;;5.65;;
73632;SDS011;61927;50.080;14.418;2023-03-08T09:00:25;9.18;;;5.97;;
73632;SDS011;61927;50.080;14.418;2023-03-08T09:02:51;10.32;;;6.75;;
73632;SDS011;61927;50.080;14.418;2023-03-08T09:05:18;12.15;;;7.35;;
73632;SDS011;61927;50.080;14.418;2023-03-08T09:07:45;7.95;;;5.40;;
73632;SDS011;61927;50.080;14.418;2023-03-08T09:10:10;7.53;;;5.25;;
73632;SDS011;61927;50.080;14.418;2023-03-08T09:12:36;16.60;;;6.57;;
73632;SDS011;61927;50.080;14.418;2023-03-08T09:15:03;11.32;;;5.75;;
73632;SDS011;61927;50.080;14.418;2023-03-08T09:17:30;10.02;;;5.80;;
73632;SDS011;61927;50.080;14.418;2023-03-08T09:19:58;13.05;;;6.15;;
73632;SDS011;61927;50.080;14.418;2023-03-08T09:22:24;12.50;;;6.05;;
73632;SDS011;61927;50.080;14.418;2023-03-08T09:24:50;13.68;;;5.88;;
73632;SDS011;61927;50.080;14.418;2023-03-08T09:27:19;14.45;;;5.93;;
73632;SDS011;61927;50.080;14.418;2023-03-08T09:29:48;8.52;;;5.85;;
73632;SDS011;61927;50.080;14.418;2023-03-08T09:32:24;11.90;;;5.55;;
73632;SDS011;61927;50.080;14.418;2023-03-08T09:34:51;7.68;;;5.30;;
73632;SDS011;61927;50.080;14.418;2023-03-08T09:37:17;17.27;;;5.88;;
73632;SDS011;61927;50.080;14.418;2023-03-08T09:39:44;7.57;;;5.40;;
73632;SDS011;61927;50.080;14.418;2023-03-08T09:50:00;14.75;;;6.00;;
73632;SDS011;61927;50.080;14.418;2023-03-08T09:52:48;7.63;;;4.55;;
73632;SDS011;61927;50.080;14.418;2023-03-08T09:55:22;8.73;;;5.50;;
73632;SDS011;61927;50.080;14.418;2023-03-08T09:57:56;12.05;;;5.80;;
73632;SDS011;61927;50.080;14.418;2023-03-08T10:00:33;8.20;;;5.10;;
73632;SDS011;61927;50.080;14.418;2023-03-08T10:06:17;7.68;;;4.88;;
73632;SDS011;61927;50.080;14.418;2023-03-08T10:08:52;10.38;;;4.40;;
73632;SDS011;61927;50.080;14.418;2023-03-08T10:11:23;13.02;;;5.78;;
73632;SDS011;61927;50.080;14.418;2023-03-08T10:13:59;7.82;;;4.93;;
73632;SDS011;61927;50.080;14.418;2023-03-08T10:16:32;11.38;;;5.20;;
73632;SDS011;61927;50.080;14.418;2023-03-08T10:21:41;8.38;;;4.80;;
73632;SDS011;61927;50.080;14.418;2023-03-08T10:24:20;6.32;;;4.55;;
73632;SDS011;61927;50.080;14.418;2023-03-08T10:26:54;14.48;;;5.25;;
73632;SDS011;61927;50.080;14.418;2023-03-08T10:29:27;20.52;;;5.93;;
73632;SDS011;61927;50.080;14.418;2023-03-08T10:31:52;13.75;;;5.40;;
73632;SDS011;61927;50.080;14.418;2023-03-08T10:34:20;9.88;;;5.00;;
73632;SDS011;61927;50.080;14.418;2023-03-08T10:36:50;6.30;;;4.32;;
73632;SDS011;61927;50.080;14.418;2023-03-08T10:39:19;7.85;;;5.15;;
73632;SDS011;61927;50.080;14.418;2023-03-08T10:41:49;6.72;;;5.10;;
73632;SDS011;61927;50.080;14.418;2023-03-08T10:44:29;7.38;;;4.10;;
73632;SDS011;61927;50.080;14.418;2023-03-08T10:47:24;5.95;;;3.80;;
73632;SDS011;61927;50.080;14.418;2023-03-08T10:50:09;11.63;;;4.32;;
73632;SDS011;61927;50.080;14.418;2023-03-08T10:52:41;6.22;;;4.00;;
73632;SDS011;61927;50.080;14.418;2023-03-08T10:55:10;9.00;;;4.28;;
73632;SDS011;61927;50.080;14.418;2023-03-08T10:57:48;7.72;;;4.82;;
73632;SDS011;61927;50.080;14.418;2023-03-08T11:00:24;5.47;;;4.40;;
73632;SDS011;61927;50.080;14.418;2023-03-08T11:03:14;6.28;;;4.80;;
73632;SDS011;61927;50.080;14.418;2023-03-08T11:05:56;14.80;;;6.82;;
73632;SDS011;61927;50.080;14.418;2023-03-08T11:08:28;9.70;;;5.40;;
73632;SDS011;61927;50.080;14.418;2023-03-08T11:11:11;9.40;;;5.32;;
73632;SDS011;61927;50.080;14.418;2023-03-08T11:13:39;9.73;;;6.30;;
73632;SDS011;61927;50.080;14.418;2023-03-08T11:18:52;8.18;;;5.03;;
73632;SDS011;61927;50.080;14.418;2023-03-08T11:21:31;9.25;;;4.53;;
73632;SDS011;61927;50.080;14.418;2023-03-08T11:24:22;11.63;;;5.50;;
73632;SDS011;61927;50.080;14.418;2023-03-08T11:27:21;5.72;;;4.55;;
73632;SDS011;61927;50.080;14.418;2023-03-08T11:32:39;8.45;;;5.30;;
73632;SDS011;61927;50.080;14.418;2023-03-08T11:40:41;11.95;;;6.05;;
73632;SDS011;61927;50.080;14.418;2023-03-08T11:43:15;10.38;;;5.60;;
73632;SDS011;61927;50.080;14.418;2023-03-08T11:48:56;7.88;;;5.55;;
73632;SDS011;61927;50.080;14.418;2023-03-08T11:51:46;12.48;;;6.22;;
73632;SDS011;61927;50.080;14.418;2023-03-08T11:54:31;8.85;;;5.53;;
73632;SDS011;61927;50.080;14.418;2023-03-08T11:57:21;7.65;;;5.43;;
73632;SDS011;61927;50.080;14.418;2023-03-08T11:59:51;11.10;;;5.38;;
73632;SDS011;61927;50.080;14.418;2023-03-08T12:02:37;45.92;;;21.70;;
73632;SDS011;61927;50.080;14.418;2023-03-08T12:05:11;7.85;;;5.68;;
73632;SDS011;61927;50.080;14.418;2023-03-08T12:10:14;9.73;;;5.25;;
73632;SDS011;61927;50.080;14.418;2023-03-08T12:12:53;10.68;;;6.53;;
73632;SDS011;61927;50.080;14.418;2023-03-08T12:15:25;13.35;;;7.10;;
73632;SDS011;61927;50.080;14.418;2023-03-08T12:18:04;8.70;;;5.97;;
73632;SDS011;61927;50.080;14.418;2023-03-08T12:20:39;7.28;;;5.30;;
73632;SDS011;61927;50.080;14.418;2023-03-08T12:26:09;9.40;;;6.20;;
73632;SDS011;61927;50.080;14.418;2023-03-08T12:28:59;8.73;;;5.72;;
73632;SDS011;61927;50.080;14.418;2023-03-08T12:31:36;14.07;;;5.73;;
73632;SDS011;61927;50.080;14.418;2023-03-08T12:34:11;21.08;;;10.50;;
73632;SDS011;61927;50.080;14.418;2023-03-08T12:36:50;11.27;;;5.77;;
73632;SDS011;61927;50.080;14.418;2023-03-08T12:39:53;8.45;;;5.82;;
73632;SDS011;61927;50.080;14.418;2023-03-08T12:42:32;21.55;;;6.97;;
73632;SDS011;61927;50.080;14.418;2023-03-08T12:45:07;6.75;;;5.70;;
73632;SDS011;61927;50.080;14.418;2023-03-08T12:50:30;10.57;;;5.65;;
73632;SDS011;61927;50.080;14.418;2023-03-08T12:56:04;6.50;;;5.50;;
73632;SDS011;61927;50.080;14.418;2023-03-08T12:58:49;6.85;;;5.30;;
73632;SDS011;61927;50.080;14.418;2023-03-08T13:01:43;10.52;;;5.22;;
73632;SDS011;61927;50.080;14.418;2023-03-08T13:04:38;10.07;;;6.60;;
73632;SDS011;61927;50.080;14.418;2023-03-08T13:09:42;6.65;;;5.28;;
73632;SDS011;61927;50.080;14.418;2023-03-08T13:19:52;11.23;;;6.20;;
73632;SDS011;61927;50.080;14.418;2023-03-08T13:22:29;10.70;;;6.75;;
73632;SDS011;61927;50.080;14.418;2023-03-08T13:25:27;8.35;;;6.10;;
73632;SDS011;61927;50.080;14.418;2023-03-08T13:28:12;10.52;;;7.13;;
73632;SDS011;61927;50.080;14.418;2023-03-08T13:33:18;10.85;;;7.05;;
73632;SDS011;61927;50.080;14.418;2023-03-08T13:35:57;12.60;;;6.78;;
73632;SDS011;61927;50.080;14.418;2023-03-08T13:38:23;11.02;;;6.55;;
73632;SDS011;61927;50.080;14.418;2023-03-08T13:40:52;10.10;;;6.30;;
73632;SDS011;61927;50.080;14.418;2023-03-08T13:43:20;11.43;;;7.03;;
73632;SDS011;61927;50.080;14.418;2023-03-08T13:45:49;10.70;;;7.05;;
73632;SDS011;61927;50.080;14.418;2023-03-08T13:48:16;12.73;;;7.53;;
73632;SDS011;61927;50.080;14.418;2023-03-08T13:50:50;46.55;;;28.73;;
73632;SDS011;61927;50.080;14.418;2023-03-08T13:53:17;14.85;;;8.93;;
73632;SDS011;61927;50.080;14.418;2023-03-08T13:55:52;13.68;;;8.00;;
73632;SDS011;61927;50.080;14.418;2023-03-08T13:58:34;8.60;;;6.78;;
73632;SDS011;61927;50.080;14.418;2023-03-08T14:01:09;10.90;;;6.85;;
73632;SDS011;61927;50.080;14.418;2023-03-08T14:03:40;11.55;;;6.30;;
73632;SDS011;61927;50.080;14.418;2023-03-08T14:06:15;14.95;;;6.45;;
73632;SDS011;61927;50.080;14.418;2023-03-08T14:08:47;11.93;;;7.03;;
73632;SDS011;61927;50.080;14.418;2023-03-08T14:11:17;10.50;;;7.50;;
73632;SDS011;61927;50.080;14.418;2023-03-08T14:16:26;10.18;;;6.70;;
73632;SDS011;61927;50.080;14.418;2023-03-08T14:18:54;10.32;;;6.28;;
73632;SDS011;61927;50.080;14.418;2023-03-08T14:21:22;10.80;;;6.70;;
73632;SDS011;61927;50.080;14.418;2023-03-08T14:23:53;10.88;;;7.20;;
73632;SDS011;61927;50.080;14.418;2023-03-08T14:26:32;9.85;;;6.93;;
73632;SDS011;61927;50.080;14.418;2023-03-08T14:31:58;13.38;;;8.75;;
73632;SDS011;61927;50.080;14.418;2023-03-08T14:34:43;14.20;;;8.95;;
73632;SDS011;61927;50.080;14.418;2023-03-08T14:37:14;12.07;;;8.27;;
73632;SDS011;61927;50.080;14.418;2023-03-08T14:39:48;12.85;;;7.85;;
73632;SDS011;61927;50.080;14.418;2023-03-08T14:45:41;15.70;;;9.15;;
73632;SDS011;61927;50.080;14.418;2023-03-08T14:56:02;13.27;;;7.63;;
73632;SDS011;61927;50.080;14.418;2023-03-08T14:58:33;13.52;;;7.18;;
73632;SDS011;61927;50.080;14.418;2023-03-08T15:01:02;16.73;;;8.40;;
73632;SDS011;61927;50.080;14.418;2023-03-08T15:03:29;11.63;;;7.28;;
73632;SDS011;61927;50.080;14.418;2023-03-08T15:05:58;12.18;;;7.68;;
73632;SDS011;61927;50.080;14.418;2023-03-08T15:08:29;10.93;;;7.78;;
73632;SDS011;61927;50.080;14.418;2023-03-08T15:10:55;13.10;;;8.07;;
73632;SDS011;61927;50.080;14.418;2023-03-08T15:13:21;10.98;;;7.05;;
73632;SDS011;61927;50.080;14.418;2023-03-08T15:15:47;13.20;;;7.60;;
73632;SDS011;61927;50.080;14.418;2023-03-08T15:18:14;27.70;;;9.77;;
73632;SDS011;61927;50.080;14.418;2023-03-08T15:20:41;13.70;;;7.90;;
73632;SDS011;61927;50.080;14.418;2023-03-08T15:23:09;10.20;;;7.60;;
73632;SDS011;61927;50.080;14.418;2023-03-08T15:25:40;12.88;;;7.93;;
73632;SDS011;61927;50.080;14.418;2023-03-08T15:28:09;12.93;;;7.78;;
73632;SDS011;61927;50.080;14.418;2023-03-08T15:30:40;13.82;;;7.85;;
73632;SDS011;61927;50.080;14.418;2023-03-08T15:33:05;18.55;;;10.60;;
73632;SDS011;61927;50.080;14.418;2023-03-08T15:35:31;20.25;;;9.68;;
73632;SDS011;61927;50.080;14.418;2023-03-08T15:37:57;12.18;;;7.78;;
73632;SDS011;61927;50.080;14.418;2023-03-08T15:40:24;13.88;;;7.70;;
73632;SDS011;61927;50.080;14.418;2023-03-08T15:42:52;12.25;;;7.43;;
73632;SDS011;61927;50.080;14.418;2023-03-08T15:45:19;12.48;;;7.45;;
73632;SDS011;61927;50.080;14.418;2023-03-08T15:48:00;16.98;;;7.50;;
73632;SDS011;61927;50.080;14.418;2023-03-08T15:50:28;11.95;;;7.63;;
73632;SDS011;61927;50.080;14.418;2023-03-08T15:52:55;12.02;;;8.23;;
73632;SDS011;61927;50.080;14.418;2023-03-08T15:55:22;15.43;;;8.90;;
73632;SDS011;61927;50.080;14.418;2023-03-08T15:57:49;15.10;;;9.00;;